AUA884 LGSA-LOWW
Flight info
| Callsign | AUA884 |
|---|---|
| Flight time | 2h 18m |
| Altitude | 38000 |
| Route | SOKRI UY151 DDM DCT XANIS DCT DIMIS DCT RETRA DCT POD DCT NILKU DCT OBUTI OBUTI2W |
| Aircraft | A320/M-SDE3FGHIRWY/LB1 |
Departure
| Time | 2026-04-25 16:17 |
|---|---|
| Airport | Chania International Airport (LGSA) |
Arrival
| Time | 2026-04-25 18:36 |
|---|---|
| Airport | Vienna International Airport (LOWW) |
| Time | Latitude | Longitude | Altitude | Speed | Heading |
|---|---|---|---|---|---|
| 2026-04-25 15:42 | 35.53879 | 24.14041 | 557 ft | 0 kts | 21° |
| 2026-04-25 16:08 | 35.53872 | 24.14038 | 557 ft | 4 kts | 21° |
| 2026-04-25 16:08 | 35.53847 | 24.14026 | 567 ft | 4 kts | 21° |
| 2026-04-25 16:08 | 35.53826 | 24.14015 | 567 ft | 3 kts | 20° |
| 2026-04-25 16:08 | 35.53802 | 24.14013 | 562 ft | 4 kts | 323° |
| 2026-04-25 16:09 | 35.53787 | 24.14037 | 565 ft | 3 kts | 291° |
| 2026-04-25 16:09 | 35.53780 | 24.14058 | 565 ft | 0 kts | 291° |
| 2026-04-25 16:12 | 35.53782 | 24.14053 | 566 ft | 4 kts | 292° |
| 2026-04-25 16:12 | 35.53801 | 24.14000 | 562 ft | 7 kts | 291° |
| 2026-04-25 16:12 | 35.53812 | 24.13963 | 564 ft | 10 kts | 291° |
| 2026-04-25 16:13 | 35.53818 | 24.13844 | 561 ft | 10 kts | 218° |
| 2026-04-25 16:13 | 35.53762 | 24.13810 | 560 ft | 8 kts | 224° |
| 2026-04-25 16:13 | 35.53759 | 24.13754 | 561 ft | 6 kts | 284° |
| 2026-04-25 16:13 | 35.53770 | 24.13709 | 561 ft | 6 kts | 290° |
| 2026-04-25 16:14 | 35.53795 | 24.13638 | 557 ft | 10 kts | 293° |
| 2026-04-25 16:14 | 35.53819 | 24.13566 | 563 ft | 8 kts | 289° |
| 2026-04-25 16:14 | 35.53802 | 24.13510 | 562 ft | 8 kts | 213° |
| 2026-04-25 16:14 | 35.53769 | 24.13490 | 559 ft | 7 kts | 206° |
| 2026-04-25 16:15 | 35.53759 | 24.13484 | 560 ft | 7 kts | 206° |
| 2026-04-25 16:15 | 35.53717 | 24.13459 | 562 ft | 6 kts | 204° |
| 2026-04-25 16:16 | 35.53681 | 24.13459 | 564 ft | 4 kts | 158° |
| 2026-04-25 16:16 | 35.53666 | 24.13479 | 560 ft | 3 kts | 125° |
| 2026-04-25 16:16 | 35.53658 | 24.13502 | 564 ft | 2 kts | 112° |
| 2026-04-25 16:16 | 35.53656 | 24.13507 | 562 ft | 0 kts | 112° |
| 2026-04-25 16:17 | 35.53609 | 24.13655 | 559 ft | 53 kts | 110° |
| 2026-04-25 16:17 | 35.53397 | 24.14348 | 562 ft | 117 kts | 113° |
| 2026-04-25 16:17 | 35.53059 | 24.15494 | 614 ft | 162 kts | 105° |
| 2026-04-25 16:17 | 35.52627 | 24.16786 | 1253 ft | 165 kts | 108° |
| 2026-04-25 16:18 | 35.52178 | 24.18094 | 1961 ft | 167 kts | 107° |
| 2026-04-25 16:18 | 35.52034 | 24.18543 | 2202 ft | 169 kts | 107° |
| 2026-04-25 16:18 | 35.51273 | 24.21055 | 2756 ft | 208 kts | 105° |
| 2026-04-25 16:18 | 35.50757 | 24.22811 | 3081 ft | 232 kts | 106° |
| 2026-04-25 16:19 | 35.50210 | 24.24727 | 3882 ft | 232 kts | 105° |
| 2026-04-25 16:19 | 35.49669 | 24.26510 | 5193 ft | 220 kts | 108° |
| 2026-04-25 16:19 | 35.49080 | 24.28252 | 6081 ft | 223 kts | 108° |
| 2026-04-25 16:20 | 35.47868 | 24.31889 | 7697 ft | 233 kts | 109° |
| 2026-04-25 16:20 | 35.47206 | 24.33742 | 8376 ft | 249 kts | 116° |
| 2026-04-25 16:20 | 35.44174 | 24.36422 | 9538 ft | 290 kts | 156° |
| 2026-04-25 16:21 | 35.42160 | 24.36865 | 10226 ft | 306 kts | 179° |
| 2026-04-25 16:21 | 35.39996 | 24.36300 | 10461 ft | 333 kts | 198° |
| 2026-04-25 16:21 | 35.37834 | 24.35124 | 11122 ft | 337 kts | 211° |
| 2026-04-25 16:21 | 35.36079 | 24.33343 | 12504 ft | 320 kts | 229° |
| 2026-04-25 16:22 | 35.34912 | 24.31138 | 13865 ft | 300 kts | 248° |
| 2026-04-25 16:22 | 35.34381 | 24.28759 | 14946 ft | 285 kts | 266° |
| 2026-04-25 16:22 | 35.34445 | 24.26362 | 15639 ft | 285 kts | 284° |
| 2026-04-25 16:22 | 35.35215 | 24.24099 | 15962 ft | 293 kts | 307° |
| 2026-04-25 16:23 | 35.36387 | 24.22021 | 16549 ft | 299 kts | 307° |
| 2026-04-25 16:23 | 35.37582 | 24.19917 | 17210 ft | 303 kts | 307° |
| 2026-04-25 16:23 | 35.38791 | 24.17787 | 17876 ft | 306 kts | 308° |
| 2026-04-25 16:23 | 35.40008 | 24.15638 | 18481 ft | 309 kts | 307° |
| 2026-04-25 16:24 | 35.41237 | 24.13460 | 19023 ft | 312 kts | 307° |
| 2026-04-25 16:24 | 35.42481 | 24.11253 | 19557 ft | 317 kts | 306° |
| 2026-04-25 16:24 | 35.43741 | 24.09019 | 20089 ft | 321 kts | 307° |
| 2026-04-25 16:24 | 35.45018 | 24.06755 | 20623 ft | 325 kts | 306° |
| 2026-04-25 16:25 | 35.46304 | 24.04469 | 21133 ft | 328 kts | 306° |
| 2026-04-25 16:25 | 35.46741 | 24.03690 | 21307 ft | 330 kts | 306° |
| 2026-04-25 16:25 | 35.48929 | 23.99794 | 22200 ft | 336 kts | 306° |
| 2026-04-25 16:25 | 35.50262 | 23.97423 | 22755 ft | 339 kts | 306° |
| 2026-04-25 16:26 | 35.51611 | 23.95023 | 23323 ft | 343 kts | 306° |
| 2026-04-25 16:26 | 35.52973 | 23.92603 | 23787 ft | 346 kts | 306° |
| 2026-04-25 16:26 | 35.54344 | 23.90161 | 24256 ft | 349 kts | 305° |
| 2026-04-25 16:26 | 35.55724 | 23.87695 | 24696 ft | 351 kts | 305° |
| 2026-04-25 16:27 | 35.57110 | 23.85215 | 25150 ft | 353 kts | 304° |
| 2026-04-25 16:27 | 35.58506 | 23.82716 | 25600 ft | 356 kts | 304° |
| 2026-04-25 16:27 | 35.59912 | 23.80199 | 26051 ft | 358 kts | 304° |
| 2026-04-25 16:27 | 35.61323 | 23.77675 | 26498 ft | 360 kts | 304° |
| 2026-04-25 16:28 | 35.62742 | 23.75133 | 26940 ft | 362 kts | 303° |
| 2026-04-25 16:28 | 35.64174 | 23.72566 | 27374 ft | 364 kts | 303° |
| 2026-04-25 16:28 | 35.65612 | 23.69990 | 27809 ft | 366 kts | 303° |
| 2026-04-25 16:28 | 35.67051 | 23.67406 | 28241 ft | 368 kts | 303° |
| 2026-04-25 16:29 | 35.68504 | 23.64796 | 28649 ft | 371 kts | 303° |
| 2026-04-25 16:29 | 35.70156 | 23.62354 | 29040 ft | 374 kts | 318° |
| 2026-04-25 16:29 | 35.72328 | 23.60585 | 29412 ft | 377 kts | 337° |
| 2026-04-25 16:29 | 35.74826 | 23.59551 | 29781 ft | 380 kts | 343° |
| 2026-04-25 16:30 | 35.76546 | 23.58918 | 30030 ft | 382 kts | 343° |
| 2026-04-25 16:30 | 35.79935 | 23.57690 | 30482 ft | 385 kts | 343° |
| 2026-04-25 16:30 | 35.82511 | 23.56758 | 30846 ft | 386 kts | 343° |
| 2026-04-25 16:30 | 35.85096 | 23.55821 | 31212 ft | 388 kts | 343° |
| 2026-04-25 16:31 | 35.87706 | 23.54977 | 31563 ft | 390 kts | 349° |
| 2026-04-25 16:31 | 35.90250 | 23.54447 | 31681 ft | 399 kts | 350° |
| 2026-04-25 16:31 | 35.93012 | 23.53889 | 31816 ft | 407 kts | 350° |
| 2026-04-25 16:31 | 35.95840 | 23.53319 | 31948 ft | 415 kts | 350° |
| 2026-04-25 16:32 | 35.98706 | 23.52740 | 32082 ft | 422 kts | 350° |
| 2026-04-25 16:32 | 36.01632 | 23.52145 | 32219 ft | 429 kts | 350° |
| 2026-04-25 16:32 | 36.04594 | 23.51540 | 32346 ft | 435 kts | 350° |
| 2026-04-25 16:32 | 36.07599 | 23.50924 | 32488 ft | 441 kts | 350° |
| 2026-04-25 16:33 | 36.10654 | 23.50297 | 32621 ft | 447 kts | 350° |
| 2026-04-25 16:33 | 36.13736 | 23.49666 | 32762 ft | 452 kts | 350° |
| 2026-04-25 16:33 | 36.16851 | 23.49027 | 32893 ft | 456 kts | 350° |
| 2026-04-25 16:33 | 36.19995 | 23.48382 | 33065 ft | 459 kts | 350° |
| 2026-04-25 16:34 | 36.23146 | 23.47735 | 33336 ft | 459 kts | 350° |
| 2026-04-25 16:34 | 36.26291 | 23.47088 | 33686 ft | 457 kts | 350° |
| 2026-04-25 16:34 | 36.29422 | 23.46442 | 34046 ft | 455 kts | 350° |
| 2026-04-25 16:34 | 36.32531 | 23.45802 | 34338 ft | 453 kts | 350° |
| 2026-04-25 16:35 | 36.35646 | 23.45163 | 34610 ft | 453 kts | 350° |
| 2026-04-25 16:35 | 36.38748 | 23.44526 | 34867 ft | 452 kts | 350° |
| 2026-04-25 16:35 | 36.41852 | 23.43888 | 35111 ft | 451 kts | 351° |
| 2026-04-25 16:35 | 36.44954 | 23.43252 | 35344 ft | 451 kts | 351° |
| 2026-04-25 16:36 | 36.48046 | 23.42615 | 35574 ft | 451 kts | 351° |
| 2026-04-25 16:36 | 36.53233 | 23.41541 | 35961 ft | 450 kts | 350° |
| 2026-04-25 16:36 | 36.56318 | 23.40897 | 36179 ft | 449 kts | 350° |
| 2026-04-25 16:37 | 36.59393 | 23.40251 | 36390 ft | 449 kts | 350° |
| 2026-04-25 16:37 | 36.62437 | 23.39612 | 36602 ft | 448 kts | 350° |
| 2026-04-25 16:37 | 36.65555 | 23.38962 | 36821 ft | 448 kts | 351° |
| 2026-04-25 16:37 | 36.68625 | 23.38324 | 37017 ft | 448 kts | 351° |
| 2026-04-25 16:38 | 36.71694 | 23.37687 | 37213 ft | 447 kts | 351° |
| 2026-04-25 16:38 | 36.74761 | 23.37052 | 37406 ft | 447 kts | 351° |
| 2026-04-25 16:38 | 36.77825 | 23.36417 | 37598 ft | 446 kts | 351° |
| 2026-04-25 16:38 | 36.80885 | 23.35783 | 37776 ft | 446 kts | 351° |
| 2026-04-25 16:39 | 36.83947 | 23.35146 | 37960 ft | 446 kts | 351° |
| 2026-04-25 16:39 | 36.90063 | 23.33871 | 37994 ft | 445 kts | 351° |
| 2026-04-25 16:40 | 36.96131 | 23.32606 | 37994 ft | 445 kts | 351° |
| 2026-04-25 16:40 | 37.02273 | 23.31320 | 37997 ft | 445 kts | 351° |
| 2026-04-25 16:41 | 37.08377 | 23.30033 | 38000 ft | 445 kts | 351° |
| 2026-04-25 16:41 | 37.17540 | 23.28116 | 38012 ft | 445 kts | 351° |
| 2026-04-25 16:42 | 37.23658 | 23.26831 | 38015 ft | 446 kts | 351° |
| 2026-04-25 16:42 | 37.29771 | 23.25531 | 38025 ft | 446 kts | 351° |
| 2026-04-25 16:43 | 37.35881 | 23.24239 | 38027 ft | 446 kts | 351° |
| 2026-04-25 16:43 | 37.41999 | 23.22947 | 38027 ft | 446 kts | 351° |
| 2026-04-25 16:44 | 37.47972 | 23.20889 | 38032 ft | 447 kts | 336° |
| 2026-04-25 16:44 | 37.53205 | 23.16688 | 38034 ft | 448 kts | 324° |
| 2026-04-25 16:45 | 37.58227 | 23.12025 | 38030 ft | 448 kts | 325° |
| 2026-04-25 16:45 | 37.63258 | 23.07367 | 38035 ft | 448 kts | 325° |
| 2026-04-25 16:46 | 37.68281 | 23.02706 | 38035 ft | 448 kts | 325° |
| 2026-04-25 16:46 | 37.72449 | 22.98819 | 38041 ft | 448 kts | 325° |
| 2026-04-25 16:47 | 37.78311 | 22.93332 | 38041 ft | 448 kts | 325° |
| 2026-04-25 16:47 | 37.83317 | 22.88645 | 38044 ft | 448 kts | 325° |
| 2026-04-25 16:48 | 37.88322 | 22.83966 | 38041 ft | 448 kts | 325° |
| 2026-04-25 16:48 | 37.93324 | 22.79271 | 38046 ft | 447 kts | 326° |
| 2026-04-25 16:49 | 37.98292 | 22.74605 | 38043 ft | 447 kts | 326° |
| 2026-04-25 16:49 | 38.03284 | 22.69907 | 38050 ft | 447 kts | 326° |
| 2026-04-25 16:50 | 38.08273 | 22.65206 | 38043 ft | 446 kts | 326° |
| 2026-04-25 16:50 | 38.13251 | 22.60499 | 38045 ft | 446 kts | 326° |
| 2026-04-25 16:51 | 38.18227 | 22.55780 | 38046 ft | 446 kts | 326° |
| 2026-04-25 16:51 | 38.22392 | 22.51829 | 38050 ft | 446 kts | 326° |
| 2026-04-25 16:52 | 38.28169 | 22.46346 | 38050 ft | 446 kts | 326° |
| 2026-04-25 16:52 | 38.33141 | 22.41623 | 38059 ft | 445 kts | 326° |
| 2026-04-25 16:53 | 38.40574 | 22.34542 | 38057 ft | 445 kts | 326° |
| 2026-04-25 16:54 | 38.45521 | 22.29811 | 38057 ft | 444 kts | 326° |
| 2026-04-25 16:54 | 38.50458 | 22.25085 | 38059 ft | 443 kts | 325° |
| 2026-04-25 16:55 | 38.55380 | 22.20354 | 38061 ft | 443 kts | 326° |
| 2026-04-25 16:55 | 38.60264 | 22.15576 | 38062 ft | 443 kts | 324° |
| 2026-04-25 16:56 | 38.65046 | 22.10603 | 38062 ft | 443 kts | 323° |
| 2026-04-25 16:56 | 38.69683 | 22.05713 | 38060 ft | 442 kts | 323° |
| 2026-04-25 16:57 | 38.74451 | 22.00746 | 38059 ft | 442 kts | 324° |
| 2026-04-25 16:57 | 38.79236 | 21.95807 | 38056 ft | 442 kts | 324° |
| 2026-04-25 16:58 | 38.84016 | 21.90851 | 38062 ft | 442 kts | 324° |
| 2026-04-25 16:58 | 38.88785 | 21.85878 | 38050 ft | 442 kts | 324° |
| 2026-04-25 16:59 | 38.93547 | 21.80897 | 38046 ft | 442 kts | 324° |
| 2026-04-25 16:59 | 38.98319 | 21.75912 | 38040 ft | 442 kts | 324° |
| 2026-04-25 17:00 | 39.03084 | 21.70923 | 38043 ft | 442 kts | 324° |
| 2026-04-25 17:00 | 39.07882 | 21.65889 | 38046 ft | 442 kts | 324° |
| 2026-04-25 17:01 | 39.12640 | 21.60888 | 38042 ft | 441 kts | 324° |
| 2026-04-25 17:01 | 39.17356 | 21.55909 | 38038 ft | 441 kts | 324° |
| 2026-04-25 17:02 | 39.21978 | 21.51026 | 38034 ft | 441 kts | 323° |
| 2026-04-25 17:02 | 39.26749 | 21.45986 | 38035 ft | 441 kts | 324° |
| 2026-04-25 17:03 | 39.31491 | 21.40967 | 38028 ft | 440 kts | 324° |
| 2026-04-25 17:03 | 39.36197 | 21.35972 | 38030 ft | 441 kts | 324° |
| 2026-04-25 17:04 | 39.40929 | 21.30944 | 38031 ft | 441 kts | 324° |
| 2026-04-25 17:04 | 39.45697 | 21.25867 | 38031 ft | 441 kts | 323° |
| 2026-04-25 17:05 | 39.50423 | 21.20820 | 38034 ft | 440 kts | 324° |
| 2026-04-25 17:05 | 39.57467 | 21.13296 | 38024 ft | 439 kts | 324° |
| 2026-04-25 17:06 | 39.62178 | 21.08252 | 38020 ft | 439 kts | 324° |
| 2026-04-25 17:06 | 39.66880 | 21.03202 | 38007 ft | 439 kts | 324° |
| 2026-04-25 17:07 | 39.71611 | 20.98115 | 38004 ft | 438 kts | 324° |
| 2026-04-25 17:07 | 39.76303 | 20.93053 | 37999 ft | 438 kts | 324° |
| 2026-04-25 17:08 | 39.80993 | 20.87987 | 37997 ft | 439 kts | 324° |
| 2026-04-25 17:08 | 39.85689 | 20.82915 | 37991 ft | 439 kts | 324° |
| 2026-04-25 17:09 | 39.90382 | 20.77833 | 37991 ft | 439 kts | 324° |
| 2026-04-25 17:09 | 39.95079 | 20.72729 | 37988 ft | 439 kts | 324° |
| 2026-04-25 17:10 | 39.99773 | 20.67638 | 37989 ft | 439 kts | 324° |
| 2026-04-25 17:10 | 40.04467 | 20.62529 | 37982 ft | 439 kts | 324° |
| 2026-04-25 17:11 | 40.09383 | 20.58274 | 37982 ft | 431 kts | 340° |
| 2026-04-25 17:11 | 40.14894 | 20.55179 | 37977 ft | 431 kts | 340° |
| 2026-04-25 17:12 | 40.20401 | 20.52063 | 37984 ft | 432 kts | 340° |
| 2026-04-25 17:12 | 40.25918 | 20.48925 | 37988 ft | 432 kts | 340° |
| 2026-04-25 17:13 | 40.29567 | 20.46851 | 37999 ft | 432 kts | 340° |
| 2026-04-25 17:13 | 40.36943 | 20.42656 | 37992 ft | 432 kts | 340° |
| 2026-04-25 17:14 | 40.42457 | 20.39510 | 38001 ft | 432 kts | 340° |
| 2026-04-25 17:14 | 40.47974 | 20.36362 | 38004 ft | 432 kts | 340° |
| 2026-04-25 17:15 | 40.52563 | 20.33736 | 38015 ft | 433 kts | 340° |
| 2026-04-25 17:15 | 40.58075 | 20.30578 | 38013 ft | 433 kts | 340° |
| 2026-04-25 17:16 | 40.63600 | 20.27408 | 38012 ft | 433 kts | 340° |
| 2026-04-25 17:16 | 40.69114 | 20.24245 | 38005 ft | 432 kts | 340° |
| 2026-04-25 17:17 | 40.74628 | 20.21073 | 38008 ft | 432 kts | 340° |
| 2026-04-25 17:17 | 40.80184 | 20.17868 | 38009 ft | 433 kts | 340° |
| 2026-04-25 17:18 | 40.85706 | 20.14679 | 38021 ft | 433 kts | 340° |
| 2026-04-25 17:18 | 40.91228 | 20.11495 | 38020 ft | 433 kts | 340° |
| 2026-04-25 17:19 | 40.96736 | 20.08296 | 38021 ft | 432 kts | 340° |
| 2026-04-25 17:19 | 41.02240 | 20.05094 | 38019 ft | 432 kts | 340° |
| 2026-04-25 17:20 | 41.07748 | 20.01883 | 38024 ft | 432 kts | 340° |
| 2026-04-25 17:20 | 41.13245 | 19.98678 | 38024 ft | 432 kts | 340° |
| 2026-04-25 17:21 | 41.18760 | 19.95447 | 38034 ft | 432 kts | 339° |
| 2026-04-25 17:21 | 41.24259 | 19.92228 | 38032 ft | 432 kts | 340° |
| 2026-04-25 17:22 | 41.28829 | 19.89554 | 38034 ft | 431 kts | 339° |
| 2026-04-25 17:22 | 41.35246 | 19.85795 | 38032 ft | 431 kts | 339° |
| 2026-04-25 17:23 | 41.40737 | 19.82573 | 38036 ft | 431 kts | 339° |
| 2026-04-25 17:23 | 41.46215 | 19.79332 | 38035 ft | 431 kts | 339° |
| 2026-04-25 17:24 | 41.51689 | 19.76092 | 38038 ft | 430 kts | 339° |
| 2026-04-25 17:24 | 41.57165 | 19.72854 | 38030 ft | 430 kts | 339° |
| 2026-04-25 17:25 | 41.62638 | 19.69613 | 38027 ft | 430 kts | 339° |
| 2026-04-25 17:25 | 41.68105 | 19.66358 | 38027 ft | 430 kts | 339° |
| 2026-04-25 17:26 | 41.73566 | 19.63097 | 38025 ft | 430 kts | 339° |
| 2026-04-25 17:26 | 41.79025 | 19.59850 | 38018 ft | 429 kts | 339° |
| 2026-04-25 17:27 | 41.84484 | 19.56594 | 38014 ft | 429 kts | 339° |
| 2026-04-25 17:27 | 41.88127 | 19.54414 | 38009 ft | 429 kts | 339° |
| 2026-04-25 17:28 | 41.95379 | 19.50063 | 38010 ft | 429 kts | 339° |
| 2026-04-25 17:28 | 42.00823 | 19.46792 | 38004 ft | 428 kts | 338° |
| 2026-04-25 17:29 | 42.06259 | 19.43517 | 38000 ft | 428 kts | 338° |
| 2026-04-25 17:29 | 42.11702 | 19.40235 | 37999 ft | 428 kts | 338° |
| 2026-04-25 17:30 | 42.17134 | 19.36951 | 38007 ft | 428 kts | 338° |
| 2026-04-25 17:30 | 42.22569 | 19.33664 | 38004 ft | 428 kts | 338° |
| 2026-04-25 17:31 | 42.28074 | 19.30653 | 38012 ft | 427 kts | 342° |
| 2026-04-25 17:31 | 42.33650 | 19.27918 | 38012 ft | 426 kts | 342° |
| 2026-04-25 17:32 | 42.39220 | 19.25170 | 38013 ft | 426 kts | 341° |
| 2026-04-25 17:32 | 42.44714 | 19.22144 | 38011 ft | 427 kts | 339° |
| 2026-04-25 17:33 | 42.50157 | 19.18944 | 38013 ft | 426 kts | 338° |
| 2026-04-25 17:33 | 42.55597 | 19.15774 | 38007 ft | 426 kts | 339° |
| 2026-04-25 17:34 | 42.61054 | 19.12649 | 38005 ft | 425 kts | 339° |
| 2026-04-25 17:34 | 42.66517 | 19.09539 | 38003 ft | 425 kts | 339° |
| 2026-04-25 17:35 | 42.71962 | 19.06416 | 38009 ft | 425 kts | 338° |
| 2026-04-25 17:35 | 42.77419 | 19.03281 | 38005 ft | 425 kts | 338° |
| 2026-04-25 17:36 | 42.82869 | 19.00144 | 38009 ft | 425 kts | 338° |
| 2026-04-25 17:36 | 42.88304 | 18.97004 | 38005 ft | 425 kts | 338° |
| 2026-04-25 17:37 | 42.93749 | 18.93850 | 38007 ft | 425 kts | 338° |
| 2026-04-25 17:37 | 42.99192 | 18.90696 | 38008 ft | 425 kts | 338° |
| 2026-04-25 17:38 | 43.02834 | 18.88578 | 38012 ft | 425 kts | 338° |
| 2026-04-25 17:38 | 43.10079 | 18.84358 | 38020 ft | 425 kts | 338° |
| 2026-04-25 17:39 | 43.15515 | 18.81190 | 38020 ft | 425 kts | 337° |
| 2026-04-25 17:39 | 43.20951 | 18.78018 | 38019 ft | 424 kts | 337° |
| 2026-04-25 17:40 | 43.26383 | 18.74835 | 38022 ft | 424 kts | 337° |
| 2026-04-25 17:40 | 43.31814 | 18.71653 | 38021 ft | 424 kts | 337° |
| 2026-04-25 17:41 | 43.37163 | 18.68136 | 38023 ft | 424 kts | 332° |
| 2026-04-25 17:41 | 43.42333 | 18.64230 | 38022 ft | 424 kts | 332° |
| 2026-04-25 17:42 | 43.47470 | 18.60340 | 37973 ft | 422 kts | 330° |
| 2026-04-25 17:42 | 43.52607 | 18.56448 | 38003 ft | 421 kts | 330° |
| 2026-04-25 17:43 | 43.57773 | 18.52530 | 38018 ft | 421 kts | 329° |
| 2026-04-25 17:43 | 43.62897 | 18.48627 | 38026 ft | 420 kts | 329° |
| 2026-04-25 17:44 | 43.68014 | 18.44728 | 38024 ft | 420 kts | 329° |
| 2026-04-25 17:44 | 43.73122 | 18.40831 | 38021 ft | 419 kts | 329° |
| 2026-04-25 17:45 | 43.76535 | 18.38226 | 38022 ft | 419 kts | 329° |
| 2026-04-25 17:45 | 43.83326 | 18.33023 | 38024 ft | 419 kts | 329° |
| 2026-04-25 17:46 | 43.88414 | 18.29108 | 38023 ft | 418 kts | 329° |
| 2026-04-25 17:46 | 43.93495 | 18.25193 | 38024 ft | 418 kts | 329° |
| 2026-04-25 17:47 | 43.98579 | 18.21274 | 38023 ft | 417 kts | 329° |
| 2026-04-25 17:47 | 44.03655 | 18.17356 | 38027 ft | 417 kts | 329° |
| 2026-04-25 17:48 | 44.11251 | 18.11468 | 38021 ft | 417 kts | 328° |
| 2026-04-25 17:49 | 44.16314 | 18.07532 | 38023 ft | 417 kts | 328° |
| 2026-04-25 17:49 | 44.21370 | 18.03607 | 38024 ft | 416 kts | 328° |
| 2026-04-25 17:50 | 44.26421 | 17.99675 | 38025 ft | 416 kts | 328° |
| 2026-04-25 17:50 | 44.31458 | 17.95734 | 38024 ft | 415 kts | 328° |
| 2026-04-25 17:51 | 44.35680 | 17.92415 | 38014 ft | 415 kts | 328° |
| 2026-04-25 17:51 | 44.40715 | 17.88466 | 38017 ft | 415 kts | 328° |
| 2026-04-25 17:52 | 44.45791 | 17.84484 | 38020 ft | 415 kts | 328° |
| 2026-04-25 17:52 | 44.50820 | 17.80530 | 38015 ft | 414 kts | 328° |
| 2026-04-25 17:53 | 44.55844 | 17.76578 | 38021 ft | 414 kts | 328° |
| 2026-04-25 17:53 | 44.60869 | 17.72611 | 38000 ft | 414 kts | 327° |
| 2026-04-25 17:54 | 44.65892 | 17.68635 | 38000 ft | 414 kts | 327° |
| 2026-04-25 17:54 | 44.70904 | 17.64648 | 38011 ft | 414 kts | 327° |
| 2026-04-25 17:55 | 44.75910 | 17.60661 | 38003 ft | 414 kts | 327° |
| 2026-04-25 17:55 | 44.80956 | 17.56644 | 37994 ft | 413 kts | 327° |
| 2026-04-25 17:56 | 44.85961 | 17.52650 | 37992 ft | 413 kts | 327° |
| 2026-04-25 17:56 | 44.90954 | 17.48652 | 37990 ft | 413 kts | 327° |
| 2026-04-25 17:57 | 44.95949 | 17.44650 | 37995 ft | 413 kts | 327° |
| 2026-04-25 17:57 | 45.00935 | 17.40651 | 37993 ft | 412 kts | 327° |
| 2026-04-25 17:58 | 45.05956 | 17.36608 | 37996 ft | 412 kts | 327° |
| 2026-04-25 17:58 | 45.10904 | 17.32614 | 37994 ft | 412 kts | 326° |
| 2026-04-25 17:59 | 45.15921 | 17.28557 | 37998 ft | 412 kts | 326° |
| 2026-04-25 17:59 | 45.20896 | 17.24529 | 38000 ft | 412 kts | 326° |
| 2026-04-25 18:00 | 45.25867 | 17.20493 | 38001 ft | 412 kts | 326° |
| 2026-04-25 18:00 | 45.30837 | 17.16452 | 38005 ft | 412 kts | 326° |
| 2026-04-25 18:01 | 45.35814 | 17.12403 | 38005 ft | 412 kts | 326° |
| 2026-04-25 18:01 | 45.40777 | 17.08359 | 38006 ft | 411 kts | 326° |
| 2026-04-25 18:02 | 45.45741 | 17.04305 | 38007 ft | 411 kts | 326° |
| 2026-04-25 18:02 | 45.50727 | 17.00213 | 38001 ft | 411 kts | 326° |
| 2026-04-25 18:03 | 45.55669 | 16.96148 | 38001 ft | 410 kts | 326° |
| 2026-04-25 18:03 | 45.60653 | 16.92041 | 37998 ft | 411 kts | 326° |
| 2026-04-25 18:04 | 45.65604 | 16.87964 | 37997 ft | 411 kts | 326° |
| 2026-04-25 18:04 | 45.70584 | 16.83844 | 37995 ft | 411 kts | 325° |
| 2026-04-25 18:05 | 45.75530 | 16.79746 | 37994 ft | 411 kts | 325° |
| 2026-04-25 18:05 | 45.80478 | 16.75650 | 37998 ft | 411 kts | 325° |
| 2026-04-25 18:06 | 45.85424 | 16.71542 | 37998 ft | 411 kts | 325° |
| 2026-04-25 18:06 | 45.90369 | 16.67417 | 38005 ft | 411 kts | 325° |
| 2026-04-25 18:07 | 45.95347 | 16.63256 | 38001 ft | 411 kts | 325° |
| 2026-04-25 18:07 | 46.00281 | 16.59116 | 37999 ft | 411 kts | 325° |
| 2026-04-25 18:08 | 46.05221 | 16.54967 | 37996 ft | 411 kts | 325° |
| 2026-04-25 18:08 | 46.10169 | 16.50810 | 37994 ft | 412 kts | 325° |
| 2026-04-25 18:09 | 46.15116 | 16.46645 | 37993 ft | 412 kts | 325° |
| 2026-04-25 18:09 | 46.20072 | 16.42473 | 37995 ft | 413 kts | 325° |
| 2026-04-25 18:10 | 46.25031 | 16.38286 | 37994 ft | 413 kts | 325° |
| 2026-04-25 18:10 | 46.29985 | 16.34084 | 37992 ft | 413 kts | 325° |
| 2026-04-25 18:11 | 46.34938 | 16.29866 | 37992 ft | 413 kts | 325° |
| 2026-04-25 18:11 | 46.40351 | 16.26827 | 37976 ft | 425 kts | 343° |
| 2026-04-25 18:11 | 46.43279 | 16.26122 | 37657 ft | 428 kts | 345° |
| 2026-04-25 18:12 | 46.46253 | 16.25424 | 36426 ft | 438 kts | 345° |
| 2026-04-25 18:12 | 46.49290 | 16.24703 | 35322 ft | 445 kts | 345° |
| 2026-04-25 18:12 | 46.52358 | 16.23975 | 34341 ft | 448 kts | 345° |
| 2026-04-25 18:12 | 46.55435 | 16.23248 | 33452 ft | 447 kts | 345° |
| 2026-04-25 18:13 | 46.58493 | 16.22523 | 32840 ft | 441 kts | 345° |
| 2026-04-25 18:13 | 46.61497 | 16.21812 | 32253 ft | 435 kts | 345° |
| 2026-04-25 18:13 | 46.64465 | 16.21109 | 31682 ft | 430 kts | 345° |
| 2026-04-25 18:14 | 46.70303 | 16.19716 | 30568 ft | 421 kts | 345° |
| 2026-04-25 18:14 | 46.73182 | 16.19031 | 30001 ft | 418 kts | 345° |
| 2026-04-25 18:14 | 46.76043 | 16.18349 | 29410 ft | 413 kts | 345° |
| 2026-04-25 18:14 | 46.78875 | 16.17669 | 28884 ft | 408 kts | 345° |
| 2026-04-25 18:15 | 46.81660 | 16.16996 | 28356 ft | 403 kts | 345° |
| 2026-04-25 18:15 | 46.84408 | 16.16334 | 27847 ft | 399 kts | 346° |
| 2026-04-25 18:15 | 46.87132 | 16.15682 | 27340 ft | 394 kts | 346° |
| 2026-04-25 18:15 | 46.89823 | 16.15037 | 26856 ft | 390 kts | 346° |
| 2026-04-25 18:16 | 46.92491 | 16.14396 | 26368 ft | 386 kts | 346° |
| 2026-04-25 18:16 | 46.95133 | 16.13760 | 25912 ft | 383 kts | 346° |
| 2026-04-25 18:16 | 46.99506 | 16.12712 | 25147 ft | 378 kts | 346° |
| 2026-04-25 18:17 | 47.02095 | 16.12089 | 24687 ft | 375 kts | 346° |
| 2026-04-25 18:17 | 47.04699 | 16.11461 | 24223 ft | 372 kts | 346° |
| 2026-04-25 18:17 | 47.07243 | 16.10846 | 23763 ft | 370 kts | 346° |
| 2026-04-25 18:17 | 47.09780 | 16.10228 | 23245 ft | 368 kts | 346° |
| 2026-04-25 18:18 | 47.12293 | 16.09616 | 22758 ft | 365 kts | 346° |
| 2026-04-25 18:18 | 47.14787 | 16.09008 | 22290 ft | 361 kts | 346° |
| 2026-04-25 18:18 | 47.17221 | 16.08414 | 21825 ft | 359 kts | 347° |
| 2026-04-25 18:18 | 47.19712 | 16.07804 | 21347 ft | 356 kts | 347° |
| 2026-04-25 18:19 | 47.22147 | 16.07209 | 20886 ft | 354 kts | 347° |
| 2026-04-25 18:19 | 47.24565 | 16.06620 | 20401 ft | 352 kts | 347° |
| 2026-04-25 18:19 | 47.26981 | 16.06032 | 19930 ft | 350 kts | 347° |
| 2026-04-25 18:19 | 47.29378 | 16.05450 | 19464 ft | 349 kts | 347° |
| 2026-04-25 18:20 | 47.31772 | 16.04867 | 18997 ft | 348 kts | 347° |
| 2026-04-25 18:20 | 47.34132 | 16.04695 | 18847 ft | 343 kts | 2° |
| 2026-04-25 18:20 | 47.36479 | 16.05481 | 18647 ft | 351 kts | 12° |
| 2026-04-25 18:20 | 47.38864 | 16.06498 | 18417 ft | 353 kts | 12° |
| 2026-04-25 18:21 | 47.41215 | 16.07534 | 18168 ft | 352 kts | 12° |
| 2026-04-25 18:21 | 47.43421 | 16.08524 | 17918 ft | 350 kts | 13° |
| 2026-04-25 18:21 | 47.45732 | 16.09887 | 17175 ft | 363 kts | 28° |
| 2026-04-25 18:21 | 47.47743 | 16.12162 | 16846 ft | 360 kts | 35° |
| 2026-04-25 18:22 | 47.49670 | 16.14459 | 16567 ft | 352 kts | 34° |
| 2026-04-25 18:22 | 47.50955 | 16.15977 | 16310 ft | 350 kts | 34° |
| 2026-04-25 18:22 | 47.53453 | 16.18909 | 15776 ft | 346 kts | 34° |
| 2026-04-25 18:22 | 47.55331 | 16.21115 | 15359 ft | 344 kts | 34° |
| 2026-04-25 18:23 | 47.57201 | 16.23318 | 14954 ft | 343 kts | 34° |
| 2026-04-25 18:23 | 47.59060 | 16.25513 | 14555 ft | 340 kts | 34° |
| 2026-04-25 18:23 | 47.60904 | 16.27701 | 14158 ft | 339 kts | 34° |
| 2026-04-25 18:23 | 47.62737 | 16.29879 | 13770 ft | 337 kts | 34° |
| 2026-04-25 18:24 | 47.64561 | 16.32047 | 13306 ft | 335 kts | 35° |
| 2026-04-25 18:24 | 47.66372 | 16.34203 | 12866 ft | 333 kts | 35° |
| 2026-04-25 18:24 | 47.68200 | 16.36386 | 12434 ft | 331 kts | 35° |
| 2026-04-25 18:24 | 47.69966 | 16.38495 | 11982 ft | 330 kts | 35° |
| 2026-04-25 18:25 | 47.71735 | 16.40612 | 11414 ft | 324 kts | 35° |
| 2026-04-25 18:25 | 47.73501 | 16.42727 | 10628 ft | 321 kts | 36° |
| 2026-04-25 18:25 | 47.75199 | 16.44761 | 10126 ft | 310 kts | 36° |
| 2026-04-25 18:25 | 47.76835 | 16.46728 | 10004 ft | 287 kts | 36° |
| 2026-04-25 18:26 | 47.78278 | 16.48568 | 9840 ft | 270 kts | 45° |
| 2026-04-25 18:26 | 47.79178 | 16.51012 | 9415 ft | 267 kts | 75° |
| 2026-04-25 18:26 | 47.79195 | 16.53706 | 8906 ft | 266 kts | 105° |
| 2026-04-25 18:26 | 47.78550 | 16.56274 | 8356 ft | 265 kts | 114° |
| 2026-04-25 18:27 | 47.77771 | 16.58791 | 7806 ft | 264 kts | 115° |
| 2026-04-25 18:27 | 47.76992 | 16.61247 | 7302 ft | 261 kts | 114° |
| 2026-04-25 18:27 | 47.76609 | 16.63834 | 6822 ft | 255 kts | 86° |
| 2026-04-25 18:27 | 47.76956 | 16.66372 | 6307 ft | 249 kts | 63° |
| 2026-04-25 18:28 | 47.77887 | 16.68479 | 5781 ft | 241 kts | 42° |
| 2026-04-25 18:28 | 47.79246 | 16.69911 | 5254 ft | 234 kts | 21° |
| 2026-04-25 18:28 | 47.80792 | 16.70507 | 4737 ft | 228 kts | 1° |
| 2026-04-25 18:29 | 47.83829 | 16.69651 | 4009 ft | 221 kts | 343° |
| 2026-04-25 18:29 | 47.85231 | 16.69067 | 3988 ft | 197 kts | 343° |
| 2026-04-25 18:30 | 47.88556 | 16.67676 | 3998 ft | 147 kts | 342° |
| 2026-04-25 18:30 | 47.89535 | 16.67265 | 4007 ft | 145 kts | 341° |
| 2026-04-25 18:30 | 47.90505 | 16.66858 | 4013 ft | 143 kts | 341° |
| 2026-04-25 18:30 | 47.91433 | 16.66470 | 3980 ft | 135 kts | 341° |
| 2026-04-25 18:31 | 47.92339 | 16.66090 | 3874 ft | 135 kts | 341° |
| 2026-04-25 18:31 | 47.93241 | 16.65711 | 3717 ft | 134 kts | 342° |
| 2026-04-25 18:31 | 47.94146 | 16.65331 | 3550 ft | 133 kts | 341° |
| 2026-04-25 18:31 | 47.95039 | 16.64956 | 3383 ft | 133 kts | 340° |
| 2026-04-25 18:32 | 47.95909 | 16.64590 | 3210 ft | 133 kts | 340° |
| 2026-04-25 18:32 | 47.96794 | 16.64218 | 3038 ft | 132 kts | 340° |
| 2026-04-25 18:32 | 47.97676 | 16.63848 | 2870 ft | 132 kts | 338° |
| 2026-04-25 18:32 | 47.98555 | 16.63478 | 2690 ft | 131 kts | 338° |
| 2026-04-25 18:33 | 47.99433 | 16.63109 | 2518 ft | 130 kts | 337° |
| 2026-04-25 18:33 | 48.00261 | 16.62761 | 2360 ft | 130 kts | 337° |
| 2026-04-25 18:33 | 48.01131 | 16.62394 | 2183 ft | 129 kts | 336° |
| 2026-04-25 18:33 | 48.01994 | 16.62027 | 2001 ft | 129 kts | 336° |
| 2026-04-25 18:34 | 48.02857 | 16.61658 | 1821 ft | 129 kts | 336° |
| 2026-04-25 18:34 | 48.03731 | 16.61294 | 1646 ft | 128 kts | 336° |
| 2026-04-25 18:34 | 48.04592 | 16.60932 | 1468 ft | 128 kts | 338° |
| 2026-04-25 18:34 | 48.05437 | 16.60572 | 1296 ft | 129 kts | 339° |
| 2026-04-25 18:35 | 48.06310 | 16.60203 | 1120 ft | 131 kts | 340° |
| 2026-04-25 18:35 | 48.07196 | 16.59832 | 998 ft | 133 kts | 339° |
| 2026-04-25 18:35 | 48.08076 | 16.59454 | 777 ft | 133 kts | 340° |
| 2026-04-25 18:35 | 48.08963 | 16.59088 | 647 ft | 130 kts | 340° |
| 2026-04-25 18:36 | 48.09760 | 16.58734 | 617 ft | 104 kts | 339° |
| 2026-04-25 18:36 | 48.10292 | 16.58500 | 609 ft | 54 kts | 346° |
| 2026-04-25 18:36 | 48.10636 | 16.58367 | 612 ft | 48 kts | 345° |
| 2026-04-25 18:36 | 48.10936 | 16.58233 | 618 ft | 29 kts | 337° |
| 2026-04-25 18:37 | 48.11029 | 16.58097 | 616 ft | 19 kts | 305° |
| 2026-04-25 18:37 | 48.11088 | 16.57917 | 614 ft | 20 kts | 294° |
| 2026-04-25 18:37 | 48.11148 | 16.57723 | 614 ft | 21 kts | 295° |
| 2026-04-25 18:37 | 48.11195 | 16.57571 | 612 ft | 0 kts | 295° |
| 2026-04-25 18:38 | 48.11200 | 16.57558 | 616 ft | 2 kts | 295° |
| 2026-04-25 18:38 | 48.11205 | 16.57542 | 615 ft | 0 kts | 295° |
| 2026-04-25 18:38 | 48.11210 | 16.57525 | 610 ft | 9 kts | 296° |
| 2026-04-25 18:38 | 48.11227 | 16.57474 | 611 ft | 1 kts | 297° |
| 2026-04-25 18:39 | 48.11233 | 16.57457 | 618 ft | 3 kts | 297° |
| 2026-04-25 18:39 | 48.11234 | 16.57455 | 618 ft | 0 kts | 297° |
| 2026-04-25 18:42 | 48.11237 | 16.57445 | 614 ft | 3 kts | 297° |
| 2026-04-25 18:42 | 48.11241 | 16.57434 | 611 ft | 4 kts | 297° |
| 2026-04-25 18:42 | 48.11246 | 16.57419 | 618 ft | 0 kts | 297° |
| 2026-04-25 18:42 | 48.11246 | 16.57418 | 617 ft | 1 kts | 297° |
| 2026-04-25 18:43 | 48.11270 | 16.57350 | 609 ft | 13 kts | 297° |
| 2026-04-25 18:43 | 48.11313 | 16.57222 | 611 ft | 15 kts | 297° |
| 2026-04-25 18:43 | 48.11362 | 16.57077 | 620 ft | 16 kts | 296° |
| 2026-04-25 18:43 | 48.11406 | 16.56944 | 612 ft | 15 kts | 296° |
| 2026-04-25 18:44 | 48.11456 | 16.56801 | 612 ft | 15 kts | 300° |
| 2026-04-25 18:44 | 48.11478 | 16.56808 | 612 ft | 3 kts | 76° |
| 2026-04-25 18:44 | 48.11482 | 16.56837 | 610 ft | 2 kts | 76° |
| 2026-04-25 18:44 | 48.11487 | 16.56861 | 621 ft | 6 kts | 69° |
| 2026-04-25 18:45 | 48.11519 | 16.56911 | 610 ft | 6 kts | 28° |
| 2026-04-25 18:45 | 48.11556 | 16.56912 | 610 ft | 6 kts | 344° |
| 2026-04-25 18:45 | 48.11595 | 16.56862 | 610 ft | 11 kts | 304° |
| 2026-04-25 18:45 | 48.11631 | 16.56746 | 615 ft | 13 kts | 295° |
| 2026-04-25 18:46 | 48.11676 | 16.56700 | 622 ft | 7 kts | 45° |
| 2026-04-25 18:46 | 48.11717 | 16.56729 | 614 ft | 4 kts | 25° |
| 2026-04-25 18:46 | 48.11729 | 16.56738 | 610 ft | 0 kts | 26° |
| 2026-04-25 18:46 | 48.11730 | 16.56739 | 610 ft | 0 kts | 26° |